sensor_id;sensor_type;location;lat;lon;timestamp;pressure;altitude;pressure_sealevel;temperature;humidity
8280;BME280;8335;42.646;23.380;2023-01-26T00:02:21;141413.47;;;-0.89;100.00
8280;BME280;8335;42.646;23.380;2023-01-26T00:04:48;141407.34;;;-0.91;100.00
8280;BME280;8335;42.646;23.380;2023-01-26T00:07:15;141436.84;;;-0.79;100.00
8280;BME280;8335;42.646;23.380;2023-01-26T00:09:41;141447.94;;;-0.74;100.00
8280;BME280;8335;42.646;23.380;2023-01-26T00:12:10;141419.63;;;-0.86;100.00
8280;BME280;8335;42.646;23.380;2023-01-26T00:14:36;141427.03;;;-0.83;100.00
8280;BME280;8335;42.646;23.380;2023-01-26T00:17:16;141409.81;;;-0.90;100.00
8280;BME280;8335;42.646;23.380;2023-01-26T00:19:51;141414.72;;;-0.88;100.00
8280;BME280;8335;42.646;23.380;2023-01-26T00:22:18;141429.50;;;-0.82;100.00
8280;BME280;8335;42.646;23.380;2023-01-26T00:24:45;141431.94;;;-0.81;100.00
8280;BME280;8335;42.646;23.380;2023-01-26T00:27:13;141438.13;;;-0.78;100.00
8280;BME280;8335;42.646;23.380;2023-01-26T00:29:40;141428.25;;;-0.82;100.00
8280;BME280;8335;42.646;23.380;2023-01-26T00:32:07;141413.47;;;-0.89;100.00
8280;BME280;8335;42.646;23.380;2023-01-26T00:34:34;141420.91;;;-0.86;100.00
8280;BME280;8335;42.646;23.380;2023-01-26T00:37:00;141401.16;;;-0.94;100.00
8280;BME280;8335;42.646;23.380;2023-01-26T00:39:27;141427.03;;;-0.83;100.00
8280;BME280;8335;42.646;23.380;2023-01-26T00:41:54;141415.94;;;-0.88;100.00
8280;BME280;8335;42.646;23.380;2023-01-26T00:44:36;141396.25;;;-0.96;100.00
8280;BME280;8335;42.646;23.380;2023-01-26T00:47:04;141398.72;;;-0.95;100.00
8280;BME280;8335;42.646;23.380;2023-01-26T00:49:31;141390.13;;;-0.98;100.00
8280;BME280;8335;42.646;23.380;2023-01-26T00:51:58;141386.44;;;-1.00;100.00
8280;BME280;8335;42.646;23.380;2023-01-26T00:54:25;141375.34;;;-1.04;100.00
8280;BME280;8335;42.646;23.380;2023-01-26T00:56:51;141361.78;;;-1.10;100.00
8280;BME280;8335;42.646;23.380;2023-01-26T00:59:18;141383.94;;;-1.01;100.00
8280;BME280;8335;42.646;23.380;2023-01-26T01:01:46;141381.47;;;-1.02;100.00
8280;BME280;8335;42.646;23.380;2023-01-26T01:04:13;141329.78;;;-1.23;100.00
8280;BME280;8335;42.646;23.380;2023-01-26T01:06:40;141380.25;;;-1.02;100.00
8280;BME280;8335;42.646;23.380;2023-01-26T01:09:08;141396.25;;;-0.96;100.00
8280;BME280;8335;42.646;23.380;2023-01-26T01:11:34;141422.13;;;-0.85;100.00
8280;BME280;8335;42.646;23.380;2023-01-26T01:14:01;141439.34;;;-0.78;100.00
8280;BME280;8335;42.646;23.380;2023-01-26T01:16:28;141281.81;;;-1.43;100.00
8280;BME280;8335;42.646;23.380;2023-01-26T01:18:56;141433.19;;;-0.80;100.00
8280;BME280;8335;42.646;23.380;2023-01-26T01:21:23;141420.91;;;-0.86;100.00
8280;BME280;8335;42.646;23.380;2023-01-26T01:23:50;141412.25;;;-0.89;100.00
8280;BME280;8335;42.646;23.380;2023-01-26T01:26:17;141418.38;;;-0.87;100.00
8280;BME280;8335;42.646;23.380;2023-01-26T01:28:44;141422.13;;;-0.85;100.00
8280;BME280;8335;42.646;23.380;2023-01-26T01:31:13;141423.34;;;-0.85;100.00
8280;BME280;8335;42.646;23.380;2023-01-26T01:33:40;141423.34;;;-0.85;100.00
8280;BME280;8335;42.646;23.380;2023-01-26T01:36:10;141439.34;;;-0.78;100.00
8280;BME280;8335;42.646;23.380;2023-01-26T01:38:37;141451.63;;;-0.73;100.00
8280;BME280;8335;42.646;23.380;2023-01-26T01:41:05;141390.13;;;-0.98;100.00
8280;BME280;8335;42.646;23.380;2023-01-26T01:43:32;141430.72;;;-0.81;100.00
8280;BME280;8335;42.646;23.380;2023-01-26T01:46:00;141423.34;;;-0.85;100.00
8280;BME280;8335;42.646;23.380;2023-01-26T01:48:34;141408.56;;;-0.91;100.00
8280;BME280;8335;42.646;23.380;2023-01-26T01:51:05;141427.03;;;-0.83;100.00
8280;BME280;8335;42.646;23.380;2023-01-26T01:53:38;141374.13;;;-1.05;100.00
8280;BME280;8335;42.646;23.380;2023-01-26T01:56:14;141408.56;;;-0.91;100.00
8280;BME280;8335;42.646;23.380;2023-01-26T01:58:47;141409.81;;;-0.90;100.00
8280;BME280;8335;42.646;23.380;2023-01-26T02:01:17;141419.63;;;-0.86;100.00
8280;BME280;8335;42.646;23.380;2023-01-26T02:03:44;141365.47;;;-1.08;100.00
8280;BME280;8335;42.646;23.380;2023-01-26T02:06:14;141393.78;;;-0.97;100.00
8280;BME280;8335;42.646;23.380;2023-01-26T02:08:46;141387.66;;;-0.99;100.00
8280;BME280;8335;42.646;23.380;2023-01-26T02:11:16;141397.47;;;-0.95;100.00
8280;BME280;8335;42.646;23.380;2023-01-26T02:13:46;141397.47;;;-0.95;100.00
8280;BME280;8335;42.646;23.380;2023-01-26T02:16:14;141387.66;;;-0.99;100.00
8280;BME280;8335;42.646;23.380;2023-01-26T02:18:42;141376.56;;;-1.04;100.00
8280;BME280;8335;42.646;23.380;2023-01-26T02:21:10;141367.94;;;-1.07;100.00
8280;BME280;8335;42.646;23.380;2023-01-26T02:23:49;141356.88;;;-1.12;100.00
8280;BME280;8335;42.646;23.380;2023-01-26T02:26:20;141343.34;;;-1.18;100.00
8280;BME280;8335;42.646;23.380;2023-01-26T02:28:48;141360.56;;;-1.11;100.00
8280;BME280;8335;42.646;23.380;2023-01-26T02:31:16;141348.25;;;-1.16;100.00
8280;BME280;8335;42.646;23.380;2023-01-26T02:33:43;141361.78;;;-1.10;100.00
8280;BME280;8335;42.646;23.380;2023-01-26T02:36:18;141342.13;;;-1.18;100.00
8280;BME280;8335;42.646;23.380;2023-01-26T02:38:50;141342.13;;;-1.18;100.00
8280;BME280;8335;42.646;23.380;2023-01-26T02:41:20;141348.25;;;-1.16;100.00
8280;BME280;8335;42.646;23.380;2023-01-26T02:44:03;141359.34;;;-1.11;100.00
8280;BME280;8335;42.646;23.380;2023-01-26T02:46:30;141372.88;;;-1.05;100.00
8280;BME280;8335;42.646;23.380;2023-01-26T02:48:57;141379.03;;;-1.03;100.00
8280;BME280;8335;42.646;23.380;2023-01-26T02:51:41;141392.56;;;-0.97;100.00
8280;BME280;8335;42.646;23.380;2023-01-26T02:54:07;141396.25;;;-0.96;100.00
8280;BME280;8335;42.646;23.380;2023-01-26T02:56:56;141392.56;;;-0.97;100.00
8280;BME280;8335;42.646;23.380;2023-01-26T02:59:21;141369.22;;;-1.07;100.00
8280;BME280;8335;42.646;23.380;2023-01-26T03:01:49;141392.56;;;-0.97;100.00
8280;BME280;8335;42.646;23.380;2023-01-26T03:04:16;141393.78;;;-0.97;100.00
8280;BME280;8335;42.646;23.380;2023-01-26T03:06:43;141403.66;;;-0.93;100.00
8280;BME280;8335;42.646;23.380;2023-01-26T03:09:10;141404.88;;;-0.92;100.00
8280;BME280;8335;42.646;23.380;2023-01-26T03:11:36;141399.94;;;-0.94;100.00
8280;BME280;8335;42.646;23.380;2023-01-26T03:14:09;141401.16;;;-0.94;100.00
8280;BME280;8335;42.646;23.380;2023-01-26T03:16:36;141376.56;;;-1.04;100.00
8280;BME280;8335;42.646;23.380;2023-01-26T03:19:04;141387.66;;;-0.99;100.00
8280;BME280;8335;42.646;23.380;2023-01-26T03:21:48;141387.66;;;-0.99;100.00
8280;BME280;8335;42.646;23.380;2023-01-26T03:24:32;141395.03;;;-0.96;100.00
8280;BME280;8335;42.646;23.380;2023-01-26T03:27:16;141387.66;;;-0.99;100.00
8280;BME280;8335;42.646;23.380;2023-01-26T03:29:53;141388.88;;;-0.99;100.00
8280;BME280;8335;42.646;23.380;2023-01-26T03:32:20;141403.66;;;-0.93;100.00
8280;BME280;8335;42.646;23.380;2023-01-26T03:34:47;141386.44;;;-1.00;100.00
8280;BME280;8335;42.646;23.380;2023-01-26T03:37:13;141393.78;;;-0.97;100.00
8280;BME280;8335;42.646;23.380;2023-01-26T03:39:40;141396.25;;;-0.96;100.00
8280;BME280;8335;42.646;23.380;2023-01-26T03:42:24;141360.56;;;-1.11;100.00
8280;BME280;8335;42.646;23.380;2023-01-26T03:45:10;141393.78;;;-0.97;100.00
8280;BME280;8335;42.646;23.380;2023-01-26T03:48:05;141399.94;;;-0.94;100.00
8280;BME280;8335;42.646;23.380;2023-01-26T03:50:50;141388.88;;;-0.99;100.00
8280;BME280;8335;42.646;23.380;2023-01-26T03:53:34;141370.44;;;-1.06;100.00
8280;BME280;8335;42.646;23.380;2023-01-26T03:56:18;141366.69;;;-1.08;100.00
8280;BME280;8335;42.646;23.380;2023-01-26T03:58:48;141360.56;;;-1.11;100.00
8280;BME280;8335;42.646;23.380;2023-01-26T04:01:17;141294.13;;;-1.38;100.00
8280;BME280;8335;42.646;23.380;2023-01-26T04:03:51;141402.38;;;-0.93;100.00
8280;BME280;8335;42.646;23.380;2023-01-26T04:06:37;141323.66;;;-1.26;100.00
8280;BME280;8335;42.646;23.380;2023-01-26T04:09:21;141306.44;;;-1.33;100.00
8280;BME280;8335;42.646;23.380;2023-01-26T04:11:48;141356.88;;;-1.12;100.00
8280;BME280;8335;42.646;23.380;2023-01-26T04:14:15;141361.78;;;-1.10;100.00
8280;BME280;8335;42.646;23.380;2023-01-26T04:17:02;141370.44;;;-1.06;100.00
8280;BME280;8335;42.646;23.380;2023-01-26T04:19:47;141376.56;;;-1.04;100.00
8280;BME280;8335;42.646;23.380;2023-01-26T04:22:34;141380.25;;;-1.02;100.00
8280;BME280;8335;42.646;23.380;2023-01-26T04:25:11;141329.78;;;-1.23;100.00
8280;BME280;8335;42.646;23.380;2023-01-26T04:27:39;141381.47;;;-1.02;100.00
8280;BME280;8335;42.646;23.380;2023-01-26T04:30:07;141387.66;;;-0.99;100.00
8280;BME280;8335;42.646;23.380;2023-01-26T04:32:36;141265.84;;;-1.50;100.00
8280;BME280;8335;42.646;23.380;2023-01-26T04:35:03;141403.66;;;-0.93;100.00
8280;BME280;8335;42.646;23.380;2023-01-26T04:37:30;141409.81;;;-0.90;100.00
8280;BME280;8335;42.646;23.380;2023-01-26T04:39:57;141417.16;;;-0.87;100.00
8280;BME280;8335;42.646;23.380;2023-01-26T04:42:24;141420.91;;;-0.86;100.00
8280;BME280;8335;42.646;23.380;2023-01-26T04:44:51;141411.03;;;-0.90;100.00
8280;BME280;8335;42.646;23.380;2023-01-26T04:47:19;141429.50;;;-0.82;100.00
8280;BME280;8335;42.646;23.380;2023-01-26T04:49:47;141406.13;;;-0.92;100.00
8280;BME280;8335;42.646;23.380;2023-01-26T04:52:14;141413.47;;;-0.89;100.00
8280;BME280;8335;42.646;23.380;2023-01-26T04:54:41;141408.56;;;-0.91;100.00
8280;BME280;8335;42.646;23.380;2023-01-26T04:57:08;141404.88;;;-0.92;100.00
8280;BME280;8335;42.646;23.380;2023-01-26T04:59:36;141418.38;;;-0.87;100.00
8280;BME280;8335;42.646;23.380;2023-01-26T05:02:03;141418.38;;;-0.87;100.00
8280;BME280;8335;42.646;23.380;2023-01-26T05:04:31;141431.94;;;-0.81;100.00
8280;BME280;8335;42.646;23.380;2023-01-26T05:06:59;141455.38;;;-0.71;100.00
8280;BME280;8335;42.646;23.380;2023-01-26T05:09:26;141462.72;;;-0.68;100.00
8280;BME280;8335;42.646;23.380;2023-01-26T05:11:53;141471.31;;;-0.65;100.00
8280;BME280;8335;42.646;23.380;2023-01-26T05:14:40;141454.09;;;-0.72;100.00
8280;BME280;8335;42.646;23.380;2023-01-26T05:17:06;141459.03;;;-0.70;100.00
8280;BME280;8335;42.646;23.380;2023-01-26T05:19:33;141473.81;;;-0.64;100.00
8280;BME280;8335;42.646;23.380;2023-01-26T05:22:01;141483.66;;;-0.60;100.00
8280;BME280;8335;42.646;23.380;2023-01-26T05:24:28;141484.88;;;-0.59;100.00
8280;BME280;8335;42.646;23.380;2023-01-26T05:26:55;141493.53;;;-0.56;100.00
8280;BME280;8335;42.646;23.380;2023-01-26T05:29:42;141476.28;;;-0.63;100.00
8280;BME280;8335;42.646;23.380;2023-01-26T05:32:08;141491.06;;;-0.57;100.00
8280;BME280;8335;42.646;23.380;2023-01-26T05:34:35;141471.31;;;-0.65;100.00
8280;BME280;8335;42.646;23.380;2023-01-26T05:37:03;141478.75;;;-0.62;100.00
8280;BME280;8335;42.646;23.380;2023-01-26T05:39:30;141483.66;;;-0.60;100.00
8280;BME280;8335;42.646;23.380;2023-01-26T05:41:57;141493.53;;;-0.56;100.00
8280;BME280;8335;42.646;23.380;2023-01-26T05:44:23;141471.31;;;-0.65;100.00
8280;BME280;8335;42.646;23.380;2023-01-26T05:46:50;141494.75;;;-0.55;100.00
8280;BME280;8335;42.646;23.380;2023-01-26T05:49:17;141489.84;;;-0.57;100.00
8280;BME280;8335;42.646;23.380;2023-01-26T05:51:44;141482.41;;;-0.60;100.00
8280;BME280;8335;42.646;23.380;2023-01-26T05:54:12;141500.88;;;-0.52;100.00
8280;BME280;8335;42.646;23.380;2023-01-26T05:56:39;141498.44;;;-0.53;100.00
8280;BME280;8335;42.646;23.380;2023-01-26T05:59:06;141494.75;;;-0.55;100.00
8280;BME280;8335;42.646;23.380;2023-01-26T06:01:33;141498.44;;;-0.53;100.00
8280;BME280;8335;42.646;23.380;2023-01-26T06:03:59;141498.44;;;-0.53;100.00
8280;BME280;8335;42.646;23.380;2023-01-26T06:06:26;141494.75;;;-0.55;100.00
8280;BME280;8335;42.646;23.380;2023-01-26T06:08:53;141483.66;;;-0.60;100.00
8280;BME280;8335;42.646;23.380;2023-01-26T06:11:21;141481.19;;;-0.61;100.00
8280;BME280;8335;42.646;23.380;2023-01-26T06:13:48;141486.09;;;-0.59;100.00
8280;BME280;8335;42.646;23.380;2023-01-26T06:16:15;141513.22;;;-0.47;100.00
8280;BME280;8335;42.646;23.380;2023-01-26T06:18:42;141525.53;;;-0.42;99.91
8280;BME280;8335;42.646;23.380;2023-01-26T06:21:08;141520.56;;;-0.44;99.81
8280;BME280;8335;42.646;23.380;2023-01-26T06:23:35;141524.31;;;-0.43;99.16
8280;BME280;8335;42.646;23.380;2023-01-26T06:26:02;141524.31;;;-0.43;99.06
8280;BME280;8335;42.646;23.380;2023-01-26T06:28:32;141542.78;;;-0.35;99.02
8280;BME280;8335;42.646;23.380;2023-01-26T06:31:00;141544.00;;;-0.35;99.00
8280;BME280;8335;42.646;23.380;2023-01-26T06:33:28;141528.00;;;-0.41;98.90
8280;BME280;8335;42.646;23.380;2023-01-26T06:35:54;141551.38;;;-0.32;98.54
8280;BME280;8335;42.646;23.380;2023-01-26T06:38:21;141545.22;;;-0.34;98.56
8280;BME280;8335;42.646;23.380;2023-01-26T06:40:48;141556.28;;;-0.30;98.68
8280;BME280;8335;42.646;23.380;2023-01-26T06:43:15;141556.28;;;-0.30;98.37
8280;BME280;8335;42.646;23.380;2023-01-26T06:45:44;141556.28;;;-0.30;98.89
8280;BME280;8335;42.646;23.380;2023-01-26T06:48:11;141568.63;;;-0.24;99.16
8280;BME280;8335;42.646;23.380;2023-01-26T06:50:38;141546.47;;;-0.34;98.78
8280;BME280;8335;42.646;23.380;2023-01-26T06:53:24;141556.28;;;-0.30;99.11
8280;BME280;8335;42.646;23.380;2023-01-26T06:55:51;141550.16;;;-0.32;99.19
8280;BME280;8335;42.646;23.380;2023-01-26T06:58:18;141541.53;;;-0.36;99.17
8280;BME280;8335;42.646;23.380;2023-01-26T07:00:46;141537.81;;;-0.37;99.43
8280;BME280;8335;42.646;23.380;2023-01-26T07:03:13;141536.59;;;-0.38;99.36
8280;BME280;8335;42.646;23.380;2023-01-26T07:05:40;141535.34;;;-0.38;99.99
8280;BME280;8335;42.646;23.380;2023-01-26T07:08:07;141532.91;;;-0.39;100.00
8280;BME280;8335;42.646;23.380;2023-01-26T07:10:34;141539.03;;;-0.37;100.00
8280;BME280;8335;42.646;23.380;2023-01-26T07:13:02;141548.91;;;-0.33;100.00
8280;BME280;8335;42.646;23.380;2023-01-26T07:15:29;141547.69;;;-0.33;100.00
8280;BME280;8335;42.646;23.380;2023-01-26T07:17:57;141557.50;;;-0.29;99.96
8280;BME280;8335;42.646;23.380;2023-01-26T07:20:24;141568.63;;;-0.24;99.38
8280;BME280;8335;42.646;23.380;2023-01-26T07:22:51;141569.84;;;-0.24;99.97
8280;BME280;8335;42.646;23.380;2023-01-26T07:25:18;141585.84;;;-0.17;99.62
8280;BME280;8335;42.646;23.380;2023-01-26T07:27:45;141601.88;;;-0.11;99.05
8280;BME280;8335;42.646;23.380;2023-01-26T07:30:12;141610.50;;;-0.07;98.42
8280;BME280;8335;42.646;23.380;2023-01-26T07:32:39;141614.19;;;-0.06;98.14
8280;BME280;8335;42.646;23.380;2023-01-26T07:35:08;141611.75;;;-0.07;98.62
8280;BME280;8335;42.646;23.380;2023-01-26T07:37:35;141622.81;;;-0.02;99.32
8280;BME280;8335;42.646;23.380;2023-01-26T07:40:02;141612.97;;;-0.06;99.20
8280;BME280;8335;42.646;23.380;2023-01-26T07:42:30;141622.81;;;-0.02;99.35
8280;BME280;8335;42.646;23.380;2023-01-26T07:44:57;141622.81;;;-0.02;99.42
8280;BME280;8335;42.646;23.380;2023-01-26T07:47:24;141633.91;;;0.03;99.25
8280;BME280;8335;42.646;23.380;2023-01-26T07:49:50;141644.97;;;0.07;98.83
8280;BME280;8335;42.646;23.380;2023-01-26T07:52:19;141656.06;;;0.12;99.02
8280;BME280;8335;42.646;23.380;2023-01-26T07:54:45;141659.75;;;0.13;98.73
8280;BME280;8335;42.646;23.380;2023-01-26T07:57:12;141663.47;;;0.15;98.82
8280;BME280;8335;42.646;23.380;2023-01-26T07:59:39;141679.47;;;0.21;98.62
8280;BME280;8335;42.646;23.380;2023-01-26T08:02:08;141675.78;;;0.20;98.96
8280;BME280;8335;42.646;23.380;2023-01-26T08:04:35;141675.78;;;0.20;98.51
8280;BME280;8335;42.646;23.380;2023-01-26T08:07:02;141668.41;;;0.17;98.58
8280;BME280;8335;42.646;23.380;2023-01-26T08:09:30;141683.19;;;0.23;98.75
8280;BME280;8335;42.646;23.380;2023-01-26T08:11:56;141696.72;;;0.28;98.53
8280;BME280;8335;42.646;23.380;2023-01-26T08:14:23;141690.56;;;0.26;98.38
8280;BME280;8335;42.646;23.380;2023-01-26T08:16:50;141715.22;;;0.36;97.83
8280;BME280;8335;42.646;23.380;2023-01-26T08:19:17;141720.16;;;0.38;96.72
8280;BME280;8335;42.646;23.380;2023-01-26T08:21:44;141718.91;;;0.38;96.60
8280;BME280;8335;42.646;23.380;2023-01-26T08:24:11;141721.38;;;0.39;95.94
8280;BME280;8335;42.646;23.380;2023-01-26T08:26:39;141720.16;;;0.38;96.14
8280;BME280;8335;42.646;23.380;2023-01-26T08:29:06;141709.03;;;0.34;96.54
8280;BME280;8335;42.646;23.380;2023-01-26T08:31:33;141717.69;;;0.37;96.53
8280;BME280;8335;42.646;23.380;2023-01-26T08:33:59;141725.06;;;0.40;95.98
8280;BME280;8335;42.646;23.380;2023-01-26T08:36:26;141732.47;;;0.43;96.05
8280;BME280;8335;42.646;23.380;2023-01-26T08:38:53;141720.16;;;0.38;95.81
8280;BME280;8335;42.646;23.380;2023-01-26T08:41:20;141752.19;;;0.51;95.41
8280;BME280;8335;42.646;23.380;2023-01-26T08:43:49;141757.13;;;0.53;95.38
8280;BME280;8335;42.646;23.380;2023-01-26T08:46:17;141771.91;;;0.60;95.73
8280;BME280;8335;42.646;23.380;2023-01-26T08:48:44;141779.28;;;0.63;94.84
8280;BME280;8335;42.646;23.380;2023-01-26T08:51:13;141770.69;;;0.59;94.78
8280;BME280;8335;42.646;23.380;2023-01-26T08:53:39;141770.69;;;0.59;93.90
8280;BME280;8335;42.646;23.380;2023-01-26T08:56:09;141770.69;;;0.59;94.74
8280;BME280;8335;42.646;23.380;2023-01-26T08:58:37;141778.06;;;0.62;94.00
8280;BME280;8335;42.646;23.380;2023-01-26T09:01:06;141758.34;;;0.54;93.72
8280;BME280;8335;42.646;23.380;2023-01-26T09:03:32;141778.06;;;0.62;93.99
8280;BME280;8335;42.646;23.380;2023-01-26T09:06:00;141775.59;;;0.61;94.09
8280;BME280;8335;42.646;23.380;2023-01-26T09:08:29;141762.03;;;0.55;93.52
8280;BME280;8335;42.646;23.380;2023-01-26T09:10:55;141786.69;;;0.66;93.48
8280;BME280;8335;42.646;23.380;2023-01-26T09:13:22;141803.97;;;0.73;93.34
8280;BME280;8335;42.646;23.380;2023-01-26T09:15:49;141812.56;;;0.76;93.57
8280;BME280;8335;42.646;23.380;2023-01-26T09:18:17;141811.34;;;0.76;92.99
8280;BME280;8335;42.646;23.380;2023-01-26T09:20:44;141810.09;;;0.75;92.62
8280;BME280;8335;42.646;23.380;2023-01-26T09:23:11;141810.09;;;0.75;93.89
8280;BME280;8335;42.646;23.380;2023-01-26T09:25:40;141803.97;;;0.73;93.13
8280;BME280;8335;42.646;23.380;2023-01-26T09:28:07;141821.22;;;0.80;93.15
8280;BME280;8335;42.646;23.380;2023-01-26T09:30:34;141802.72;;;0.72;93.34
8280;BME280;8335;42.646;23.380;2023-01-26T09:33:02;141834.75;;;0.86;92.87
8280;BME280;8335;42.646;23.380;2023-01-26T09:35:31;141813.78;;;0.77;93.07
8280;BME280;8335;42.646;23.380;2023-01-26T09:37:58;141834.75;;;0.86;93.13
8280;BME280;8335;42.646;23.380;2023-01-26T09:40:35;141845.84;;;0.90;93.06
8280;BME280;8335;42.646;23.380;2023-01-26T09:43:11;141854.50;;;0.94;92.89
8280;BME280;8335;42.646;23.380;2023-01-26T09:45:45;141859.44;;;0.96;92.57
8280;BME280;8335;42.646;23.380;2023-01-26T09:48:21;141864.34;;;0.98;92.91
8280;BME280;8335;42.646;23.380;2023-01-26T09:51:00;141852.00;;;0.93;93.14
8280;BME280;8335;42.646;23.380;2023-01-26T09:53:38;141858.19;;;0.95;93.37
8280;BME280;8335;42.646;23.380;2023-01-26T09:56:11;141843.41;;;0.89;93.41
8280;BME280;8335;42.646;23.380;2023-01-26T09:58:44;141847.09;;;0.91;93.11
8280;BME280;8335;42.646;23.380;2023-01-26T10:01:16;141868.03;;;0.99;93.53
8280;BME280;8335;42.646;23.380;2023-01-26T10:03:47;141887.81;;;1.07;92.81
8280;BME280;8335;42.646;23.380;2023-01-26T10:06:22;141901.31;;;1.13;91.84
8280;BME280;8335;42.646;23.380;2023-01-26T10:08:51;141902.56;;;1.14;93.05
8280;BME280;8335;42.646;23.380;2023-01-26T10:11:23;141909.97;;;1.17;92.04
8280;BME280;8335;42.646;23.380;2023-01-26T10:13:54;141897.63;;;1.12;92.33
8280;BME280;8335;42.646;23.380;2023-01-26T10:16:23;141893.94;;;1.10;92.63
8280;BME280;8335;42.646;23.380;2023-01-26T10:18:53;141891.50;;;1.09;92.00
8280;BME280;8335;42.646;23.380;2023-01-26T10:21:25;141869.25;;;1.00;93.17
8280;BME280;8335;42.646;23.380;2023-01-26T10:23:57;141877.91;;;1.03;92.80
8280;BME280;8335;42.646;23.380;2023-01-26T10:26:29;141882.84;;;1.05;92.83
8280;BME280;8335;42.646;23.380;2023-01-26T10:28:56;141889.03;;;1.08;92.69
8280;BME280;8335;42.646;23.380;2023-01-26T10:31:25;141879.16;;;1.04;93.01
8280;BME280;8335;42.646;23.380;2023-01-26T10:33:54;141906.28;;;1.15;93.29
8280;BME280;8335;42.646;23.380;2023-01-26T10:36:23;141882.84;;;1.05;92.49
8280;BME280;8335;42.646;23.380;2023-01-26T10:38:51;141916.13;;;1.19;92.33
8280;BME280;8335;42.646;23.380;2023-01-26T10:41:23;141911.22;;;1.17;92.07
8280;BME280;8335;42.646;23.380;2023-01-26T10:43:52;141932.16;;;1.26;92.49
8280;BME280;8335;42.646;23.380;2023-01-26T10:46:31;141926.03;;;1.23;91.67
8280;BME280;8335;42.646;23.380;2023-01-26T10:49:01;141886.53;;;1.07;91.91
8280;BME280;8335;42.646;23.380;2023-01-26T10:51:31;141908.75;;;1.16;92.61
8280;BME280;8335;42.646;23.380;2023-01-26T10:54:20;141916.13;;;1.19;92.50
8280;BME280;8335;42.646;23.380;2023-01-26T10:56:50;141916.13;;;1.19;91.57
8280;BME280;8335;42.646;23.380;2023-01-26T10:59:30;141926.03;;;1.23;92.42
8280;BME280;8335;42.646;23.380;2023-01-26T11:02:00;141950.66;;;1.33;91.55
8280;BME280;8335;42.646;23.380;2023-01-26T11:04:28;141967.94;;;1.41;92.29
8280;BME280;8335;42.646;23.380;2023-01-26T11:07:14;141953.13;;;1.34;91.15
8280;BME280;8335;42.646;23.380;2023-01-26T11:09:49;141975.34;;;1.44;91.83
8280;BME280;8335;42.646;23.380;2023-01-26T11:12:17;141966.69;;;1.40;91.31
8280;BME280;8335;42.646;23.380;2023-01-26T11:14:59;141932.16;;;1.26;91.12
8280;BME280;8335;42.646;23.380;2023-01-26T11:17:31;141979.03;;;1.45;91.38
8280;BME280;8335;42.646;23.380;2023-01-26T11:23:09;141969.16;;;1.41;91.76
8280;BME280;8335;42.646;23.380;2023-01-26T11:25:44;141980.28;;;1.46;91.34
8280;BME280;8335;42.646;23.380;2023-01-26T11:28:26;141964.25;;;1.39;92.45
8280;BME280;8335;42.646;23.380;2023-01-26T11:31:06;141951.88;;;1.34;92.28
8280;BME280;8335;42.646;23.380;2023-01-26T11:33:38;141966.69;;;1.40;93.23
8280;BME280;8335;42.646;23.380;2023-01-26T11:36:14;141980.28;;;1.46;92.38
8280;BME280;8335;42.646;23.380;2023-01-26T11:38:48;141990.13;;;1.50;92.37
8280;BME280;8335;42.646;23.380;2023-01-26T11:41:31;141993.84;;;1.51;92.20
8280;BME280;8335;42.646;23.380;2023-01-26T11:44:15;141991.41;;;1.50;92.14
8280;BME280;8335;42.646;23.380;2023-01-26T11:46:57;141972.84;;;1.43;92.66
8280;BME280;8335;42.646;23.380;2023-01-26T11:49:37;141972.84;;;1.43;93.43
8280;BME280;8335;42.646;23.380;2023-01-26T11:52:10;141980.28;;;1.46;93.48
8280;BME280;8335;42.646;23.380;2023-01-26T11:54:58;141972.84;;;1.43;92.18
8280;BME280;8335;42.646;23.380;2023-01-26T11:57:33;141965.47;;;1.40;92.98
8280;BME280;8335;42.646;23.380;2023-01-26T12:00:14;141961.78;;;1.38;93.70
8280;BME280;8335;42.646;23.380;2023-01-26T12:02:42;141976.59;;;1.44;92.78
8280;BME280;8335;42.646;23.380;2023-01-26T12:05:14;141885.28;;;1.06;93.90
8280;BME280;8335;42.646;23.380;2023-01-26T12:07:47;141954.34;;;1.35;93.55
8280;BME280;8335;42.646;23.380;2023-01-26T12:10:23;141933.41;;;1.26;93.47
8280;BME280;8335;42.646;23.380;2023-01-26T12:12:56;141935.84;;;1.27;94.45
8280;BME280;8335;42.646;23.380;2023-01-26T12:15:26;141944.50;;;1.31;93.84
8280;BME280;8335;42.646;23.380;2023-01-26T12:18:00;141954.34;;;1.35;94.46
8280;BME280;8335;42.646;23.380;2023-01-26T12:20:35;141954.34;;;1.35;94.49
8280;BME280;8335;42.646;23.380;2023-01-26T12:23:10;141958.09;;;1.36;94.18
8280;BME280;8335;42.646;23.380;2023-01-26T12:25:41;141939.59;;;1.29;94.76
8280;BME280;8335;42.646;23.380;2023-01-26T12:28:15;141885.28;;;1.06;95.19
8280;BME280;8335;42.646;23.380;2023-01-26T12:30:50;141934.63;;;1.27;95.40
8280;BME280;8335;42.646;23.380;2023-01-26T12:33:18;141939.59;;;1.29;95.32
8280;BME280;8335;42.646;23.380;2023-01-26T12:36:03;141916.13;;;1.19;95.92
8280;BME280;8335;42.646;23.380;2023-01-26T12:38:45;141943.28;;;1.30;95.47
8280;BME280;8335;42.646;23.380;2023-01-26T12:41:20;141943.28;;;1.30;95.78
8280;BME280;8335;42.646;23.380;2023-01-26T12:43:59;141948.19;;;1.32;96.33
8280;BME280;8335;42.646;23.380;2023-01-26T12:46:33;141950.66;;;1.33;96.53
8280;BME280;8335;42.646;23.380;2023-01-26T12:49:04;141934.63;;;1.27;96.33
8280;BME280;8335;42.646;23.380;2023-01-26T12:51:38;141929.72;;;1.25;96.77
8280;BME280;8335;42.646;23.380;2023-01-26T12:54:14;141924.78;;;1.23;97.58
8280;BME280;8335;42.646;23.380;2023-01-26T12:56:48;141949.44;;;1.33;97.62
8280;BME280;8335;42.646;23.380;2023-01-26T12:59:20;141949.44;;;1.33;98.21
8280;BME280;8335;42.646;23.380;2023-01-26T13:01:50;141943.28;;;1.30;98.84
8280;BME280;8335;42.646;23.380;2023-01-26T13:04:16;141919.81;;;1.21;99.22
8280;BME280;8335;42.646;23.380;2023-01-26T13:06:43;141935.84;;;1.27;99.08
8280;BME280;8335;42.646;23.380;2023-01-26T13:09:21;141928.47;;;1.24;99.18
8280;BME280;8335;42.646;23.380;2023-01-26T13:11:52;141895.19;;;1.10;99.52
8280;BME280;8335;42.646;23.380;2023-01-26T13:14:37;141917.38;;;1.20;100.00
8280;BME280;8335;42.646;23.380;2023-01-26T13:17:51;141911.22;;;1.17;100.00
8280;BME280;8335;42.646;23.380;2023-01-26T13:20:23;141923.56;;;1.22;100.00
8280;BME280;8335;42.646;23.380;2023-01-26T13:22:51;141926.03;;;1.23;99.35